sensor_id;sensor_type;location;lat;lon;timestamp;P1;durP1;ratioP1;P2;durP2;ratioP2
20627;SDS011;10473;42.734;24.258;2022-11-24T00:01:01;0.80;;;0.80;;
20627;SDS011;10473;42.734;24.258;2022-11-24T00:03:34;1.20;;;0.87;;
20627;SDS011;10473;42.734;24.258;2022-11-24T00:06:03;1.23;;;1.10;;
20627;SDS011;10473;42.734;24.258;2022-11-24T00:08:34;1.53;;;1.30;;
20627;SDS011;10473;42.734;24.258;2022-11-24T00:11:03;1.87;;;1.40;;
20627;SDS011;10473;42.734;24.258;2022-11-24T00:13:31;1.37;;;1.23;;
20627;SDS011;10473;42.734;24.258;2022-11-24T00:16:04;1.50;;;1.10;;
20627;SDS011;10473;42.734;24.258;2022-11-24T00:18:36;5.03;;;0.90;;
20627;SDS011;10473;42.734;24.258;2022-11-24T00:21:05;1.10;;;1.00;;
20627;SDS011;10473;42.734;24.258;2022-11-24T00:23:34;3.20;;;1.10;;
20627;SDS011;10473;42.734;24.258;2022-11-24T00:26:03;1.37;;;1.30;;
20627;SDS011;10473;42.734;24.258;2022-11-24T00:28:33;3.30;;;1.07;;
20627;SDS011;10473;42.734;24.258;2022-11-24T00:31:02;0.90;;;0.83;;
20627;SDS011;10473;42.734;24.258;2022-11-24T00:33:31;3.30;;;1.17;;
20627;SDS011;10473;42.734;24.258;2022-11-24T00:35:59;1.63;;;1.00;;
20627;SDS011;10473;42.734;24.258;2022-11-24T00:38:27;2.00;;;1.20;;
20627;SDS011;10473;42.734;24.258;2022-11-24T00:40:56;0.60;;;0.60;;
20627;SDS011;10473;42.734;24.258;2022-11-24T00:43:24;1.03;;;0.93;;
20627;SDS011;10473;42.734;24.258;2022-11-24T00:45:52;0.30;;;0.30;;
20627;SDS011;10473;42.734;24.258;2022-11-24T00:48:20;2.83;;;1.30;;
20627;SDS011;10473;42.734;24.258;2022-11-24T00:50:54;5.30;;;1.80;;
20627;SDS011;10473;42.734;24.258;2022-11-24T00:53:22;1.67;;;1.03;;
20627;SDS011;10473;42.734;24.258;2022-11-24T00:55:51;6.53;;;2.20;;
20627;SDS011;10473;42.734;24.258;2022-11-24T00:58:20;3.47;;;0.80;;
20627;SDS011;10473;42.734;24.258;2022-11-24T01:00:49;0.90;;;0.77;;
20627;SDS011;10473;42.734;24.258;2022-11-24T01:03:18;0.70;;;0.70;;
20627;SDS011;10473;42.734;24.258;2022-11-24T01:05:47;0.43;;;0.37;;
20627;SDS011;10473;42.734;24.258;2022-11-24T01:08:15;0.30;;;0.30;;
20627;SDS011;10473;42.734;24.258;2022-11-24T01:10:43;0.33;;;0.30;;
20627;SDS011;10473;42.734;24.258;2022-11-24T01:13:11;0.70;;;0.40;;
20627;SDS011;10473;42.734;24.258;2022-11-24T01:15:40;0.30;;;0.30;;
20627;SDS011;10473;42.734;24.258;2022-11-24T01:18:08;0.40;;;0.40;;
20627;SDS011;10473;42.734;24.258;2022-11-24T01:20:36;0.40;;;0.40;;
20627;SDS011;10473;42.734;24.258;2022-11-24T01:23:04;0.23;;;0.23;;
20627;SDS011;10473;42.734;24.258;2022-11-24T01:25:32;0.37;;;0.37;;
20627;SDS011;10473;42.734;24.258;2022-11-24T01:28:00;0.47;;;0.40;;
20627;SDS011;10473;42.734;24.258;2022-11-24T01:30:28;0.20;;;0.20;;
20627;SDS011;10473;42.734;24.258;2022-11-24T01:32:57;0.80;;;0.50;;
20627;SDS011;10473;42.734;24.258;2022-11-24T01:35:25;0.30;;;0.30;;
20627;SDS011;10473;42.734;24.258;2022-11-24T01:37:52;1.40;;;0.40;;
20627;SDS011;10473;42.734;24.258;2022-11-24T01:40:20;1.03;;;0.20;;
20627;SDS011;10473;42.734;24.258;2022-11-24T01:42:49;0.60;;;0.50;;
20627;SDS011;10473;42.734;24.258;2022-11-24T01:45:30;4.30;;;3.10;;
20627;SDS011;10473;42.734;24.258;2022-11-24T01:48:03;3.97;;;2.57;;
20627;SDS011;10473;42.734;24.258;2022-11-24T01:50:32;2.77;;;1.73;;
20627;SDS011;10473;42.734;24.258;2022-11-24T01:53:02;4.60;;;3.03;;
20627;SDS011;10473;42.734;24.258;2022-11-24T01:55:33;2.50;;;1.83;;
20627;SDS011;10473;42.734;24.258;2022-11-24T01:58:04;2.20;;;1.67;;
20627;SDS011;10473;42.734;24.258;2022-11-24T02:00:33;2.17;;;1.93;;
20627;SDS011;10473;42.734;24.258;2022-11-24T02:03:06;2.30;;;1.40;;
20627;SDS011;10473;42.734;24.258;2022-11-24T02:05:36;5.93;;;3.10;;
20627;SDS011;10473;42.734;24.258;2022-11-24T02:08:09;4.20;;;3.03;;
20627;SDS011;10473;42.734;24.258;2022-11-24T02:10:43;3.00;;;1.93;;
20627;SDS011;10473;42.734;24.258;2022-11-24T02:13:12;6.37;;;2.40;;
20627;SDS011;10473;42.734;24.258;2022-11-24T02:15:41;4.17;;;2.70;;
20627;SDS011;10473;42.734;24.258;2022-11-24T02:18:10;2.27;;;1.50;;
20627;SDS011;10473;42.734;24.258;2022-11-24T02:20:38;1.27;;;1.10;;
20627;SDS011;10473;42.734;24.258;2022-11-24T02:23:08;0.77;;;0.70;;
20627;SDS011;10473;42.734;24.258;2022-11-24T02:25:43;3.03;;;1.00;;
20627;SDS011;10473;42.734;24.258;2022-11-24T02:28:21;0.73;;;0.60;;
20627;SDS011;10473;42.734;24.258;2022-11-24T02:30:52;0.90;;;0.50;;
20627;SDS011;10473;42.734;24.258;2022-11-24T02:33:20;6.43;;;0.63;;
20627;SDS011;10473;42.734;24.258;2022-11-24T02:35:50;1.53;;;0.57;;
20627;SDS011;10473;42.734;24.258;2022-11-24T02:38:18;1.67;;;0.70;;
20627;SDS011;10473;42.734;24.258;2022-11-24T02:40:55;1.20;;;0.97;;
20627;SDS011;10473;42.734;24.258;2022-11-24T02:43:25;0.97;;;0.83;;
20627;SDS011;10473;42.734;24.258;2022-11-24T02:45:56;0.20;;;0.20;;
20627;SDS011;10473;42.734;24.258;2022-11-24T02:48:24;0.50;;;0.37;;
20627;SDS011;10473;42.734;24.258;2022-11-24T02:50:53;1.00;;;0.53;;
20627;SDS011;10473;42.734;24.258;2022-11-24T02:53:20;0.40;;;0.40;;
20627;SDS011;10473;42.734;24.258;2022-11-24T02:55:48;0.67;;;0.40;;
20627;SDS011;10473;42.734;24.258;2022-11-24T02:58:16;2.20;;;0.30;;
20627;SDS011;10473;42.734;24.258;2022-11-24T03:00:45;0.30;;;0.30;;
20627;SDS011;10473;42.734;24.258;2022-11-24T03:03:13;1.70;;;0.90;;
20627;SDS011;10473;42.734;24.258;2022-11-24T03:05:41;0.50;;;0.50;;
20627;SDS011;10473;42.734;24.258;2022-11-24T03:08:09;0.57;;;0.57;;
20627;SDS011;10473;42.734;24.258;2022-11-24T03:10:37;1.33;;;0.63;;
20627;SDS011;10473;42.734;24.258;2022-11-24T03:13:05;0.90;;;0.73;;
20627;SDS011;10473;42.734;24.258;2022-11-24T03:15:33;0.70;;;0.70;;
20627;SDS011;10473;42.734;24.258;2022-11-24T03:18:03;0.60;;;0.60;;
20627;SDS011;10473;42.734;24.258;2022-11-24T03:20:31;0.60;;;0.60;;
20627;SDS011;10473;42.734;24.258;2022-11-24T03:22:59;1.30;;;0.67;;
20627;SDS011;10473;42.734;24.258;2022-11-24T03:25:27;1.10;;;1.00;;
20627;SDS011;10473;42.734;24.258;2022-11-24T03:27:56;1.80;;;1.33;;
20627;SDS011;10473;42.734;24.258;2022-11-24T03:30:24;2.77;;;1.70;;
20627;SDS011;10473;42.734;24.258;2022-11-24T03:32:52;0.97;;;0.87;;
20627;SDS011;10473;42.734;24.258;2022-11-24T03:35:21;2.17;;;1.50;;
20627;SDS011;10473;42.734;24.258;2022-11-24T03:37:50;1.60;;;1.23;;
20627;SDS011;10473;42.734;24.258;2022-11-24T03:40:18;2.30;;;1.90;;
20627;SDS011;10473;42.734;24.258;2022-11-24T03:42:46;2.47;;;1.60;;
20627;SDS011;10473;42.734;24.258;2022-11-24T03:45:14;0.93;;;0.53;;
20627;SDS011;10473;42.734;24.258;2022-11-24T03:47:42;0.57;;;0.57;;
20627;SDS011;10473;42.734;24.258;2022-11-24T03:50:10;0.80;;;0.60;;
20627;SDS011;10473;42.734;24.258;2022-11-24T03:52:39;0.37;;;0.37;;
20627;SDS011;10473;42.734;24.258;2022-11-24T03:55:07;2.03;;;1.37;;
20627;SDS011;10473;42.734;24.258;2022-11-24T03:57:35;0.40;;;0.40;;
20627;SDS011;10473;42.734;24.258;2022-11-24T04:00:03;0.40;;;0.30;;
20627;SDS011;10473;42.734;24.258;2022-11-24T04:02:32;0.73;;;0.50;;
20627;SDS011;10473;42.734;24.258;2022-11-24T04:04:59;0.30;;;0.30;;
20627;SDS011;10473;42.734;24.258;2022-11-24T04:07:27;0.50;;;0.40;;
20627;SDS011;10473;42.734;24.258;2022-11-24T04:09:56;0.70;;;0.40;;
20627;SDS011;10473;42.734;24.258;2022-11-24T04:12:24;1.87;;;1.00;;
20627;SDS011;10473;42.734;24.258;2022-11-24T04:15:09;0.30;;;0.30;;
20627;SDS011;10473;42.734;24.258;2022-11-24T04:17:38;0.83;;;0.53;;
20627;SDS011;10473;42.734;24.258;2022-11-24T04:20:06;0.93;;;0.70;;
20627;SDS011;10473;42.734;24.258;2022-11-24T04:22:34;0.50;;;0.50;;
20627;SDS011;10473;42.734;24.258;2022-11-24T04:25:04;0.30;;;0.30;;
20627;SDS011;10473;42.734;24.258;2022-11-24T04:27:35;0.30;;;0.30;;
20627;SDS011;10473;42.734;24.258;2022-11-24T04:30:04;0.30;;;0.30;;
20627;SDS011;10473;42.734;24.258;2022-11-24T04:32:33;0.63;;;0.50;;
20627;SDS011;10473;42.734;24.258;2022-11-24T04:35:01;0.33;;;0.33;;
20627;SDS011;10473;42.734;24.258;2022-11-24T04:37:29;0.50;;;0.50;;
20627;SDS011;10473;42.734;24.258;2022-11-24T04:39:57;0.97;;;0.37;;
20627;SDS011;10473;42.734;24.258;2022-11-24T04:42:26;0.67;;;0.43;;
20627;SDS011;10473;42.734;24.258;2022-11-24T04:44:54;2.17;;;0.60;;
20627;SDS011;10473;42.734;24.258;2022-11-24T04:47:22;4.53;;;1.43;;
20627;SDS011;10473;42.734;24.258;2022-11-24T04:49:51;3.73;;;2.17;;
20627;SDS011;10473;42.734;24.258;2022-11-24T04:52:20;2.93;;;1.53;;
20627;SDS011;10473;42.734;24.258;2022-11-24T04:54:49;2.37;;;2.17;;
20627;SDS011;10473;42.734;24.258;2022-11-24T04:57:17;3.33;;;2.13;;
20627;SDS011;10473;42.734;24.258;2022-11-24T04:59:47;3.50;;;1.73;;
20627;SDS011;10473;42.734;24.258;2022-11-24T05:02:16;6.27;;;2.17;;
20627;SDS011;10473;42.734;24.258;2022-11-24T05:04:43;2.53;;;1.30;;
20627;SDS011;10473;42.734;24.258;2022-11-24T05:07:11;4.13;;;2.70;;
20627;SDS011;10473;42.734;24.258;2022-11-24T05:09:39;1.10;;;1.00;;
20627;SDS011;10473;42.734;24.258;2022-11-24T05:12:21;1.73;;;0.93;;
20627;SDS011;10473;42.734;24.258;2022-11-24T05:14:50;3.30;;;1.47;;
20627;SDS011;10473;42.734;24.258;2022-11-24T05:17:18;1.13;;;1.03;;
20627;SDS011;10473;42.734;24.258;2022-11-24T05:19:46;4.07;;;3.20;;
20627;SDS011;10473;42.734;24.258;2022-11-24T05:22:13;6.50;;;4.27;;
20627;SDS011;10473;42.734;24.258;2022-11-24T05:24:41;4.30;;;2.23;;
20627;SDS011;10473;42.734;24.258;2022-11-24T05:27:09;2.37;;;2.17;;
20627;SDS011;10473;42.734;24.258;2022-11-24T05:29:37;11.83;;;4.57;;
20627;SDS011;10473;42.734;24.258;2022-11-24T05:32:06;7.23;;;5.23;;
20627;SDS011;10473;42.734;24.258;2022-11-24T05:34:34;9.80;;;5.37;;
20627;SDS011;10473;42.734;24.258;2022-11-24T05:37:02;9.57;;;6.67;;
20627;SDS011;10473;42.734;24.258;2022-11-24T05:39:30;7.03;;;4.40;;
20627;SDS011;10473;42.734;24.258;2022-11-24T05:41:59;6.63;;;4.67;;
20627;SDS011;10473;42.734;24.258;2022-11-24T05:44:48;11.13;;;3.30;;
20627;SDS011;10473;42.734;24.258;2022-11-24T05:47:17;12.33;;;3.80;;
20627;SDS011;10473;42.734;24.258;2022-11-24T05:49:45;6.30;;;4.97;;
20627;SDS011;10473;42.734;24.258;2022-11-24T05:52:13;11.13;;;4.63;;
20627;SDS011;10473;42.734;24.258;2022-11-24T05:54:41;6.27;;;4.57;;
20627;SDS011;10473;42.734;24.258;2022-11-24T05:57:09;6.70;;;5.47;;
20627;SDS011;10473;42.734;24.258;2022-11-24T05:59:38;6.27;;;4.83;;
20627;SDS011;10473;42.734;24.258;2022-11-24T06:02:05;4.80;;;3.27;;
20627;SDS011;10473;42.734;24.258;2022-11-24T06:04:35;4.03;;;3.10;;
20627;SDS011;10473;42.734;24.258;2022-11-24T06:07:03;3.67;;;2.53;;
20627;SDS011;10473;42.734;24.258;2022-11-24T06:09:34;15.57;;;8.40;;
20627;SDS011;10473;42.734;24.258;2022-11-24T06:12:02;16.37;;;11.03;;
20627;SDS011;10473;42.734;24.258;2022-11-24T06:14:30;9.93;;;6.60;;
20627;SDS011;10473;42.734;24.258;2022-11-24T06:16:58;27.50;;;15.20;;
20627;SDS011;10473;42.734;24.258;2022-11-24T06:19:26;26.30;;;16.87;;
20627;SDS011;10473;42.734;24.258;2022-11-24T06:21:55;18.10;;;11.27;;
20627;SDS011;10473;42.734;24.258;2022-11-24T06:24:23;22.63;;;14.60;;
20627;SDS011;10473;42.734;24.258;2022-11-24T06:26:51;17.57;;;12.63;;
20627;SDS011;10473;42.734;24.258;2022-11-24T06:29:18;17.37;;;13.27;;
20627;SDS011;10473;42.734;24.258;2022-11-24T06:31:46;13.73;;;10.27;;
20627;SDS011;10473;42.734;24.258;2022-11-24T06:34:14;11.03;;;7.97;;
20627;SDS011;10473;42.734;24.258;2022-11-24T06:36:42;8.50;;;4.70;;
20627;SDS011;10473;42.734;24.258;2022-11-24T06:39:11;8.27;;;5.40;;
20627;SDS011;10473;42.734;24.258;2022-11-24T06:41:38;7.40;;;5.00;;
20627;SDS011;10473;42.734;24.258;2022-11-24T06:44:06;5.17;;;4.63;;
20627;SDS011;10473;42.734;24.258;2022-11-24T06:46:35;6.17;;;4.60;;
20627;SDS011;10473;42.734;24.258;2022-11-24T06:49:03;6.17;;;4.40;;
20627;SDS011;10473;42.734;24.258;2022-11-24T06:51:30;5.37;;;4.10;;
20627;SDS011;10473;42.734;24.258;2022-11-24T06:53:58;4.57;;;3.10;;
20627;SDS011;10473;42.734;24.258;2022-11-24T06:56:28;4.07;;;3.00;;
20627;SDS011;10473;42.734;24.258;2022-11-24T06:58:55;9.60;;;4.10;;
20627;SDS011;10473;42.734;24.258;2022-11-24T07:01:24;6.17;;;3.60;;
20627;SDS011;10473;42.734;24.258;2022-11-24T07:03:53;4.60;;;2.30;;
20627;SDS011;10473;42.734;24.258;2022-11-24T07:06:22;5.13;;;2.40;;
20627;SDS011;10473;42.734;24.258;2022-11-24T07:08:51;4.57;;;3.07;;
20627;SDS011;10473;42.734;24.258;2022-11-24T07:11:20;5.37;;;2.50;;
20627;SDS011;10473;42.734;24.258;2022-11-24T07:13:50;17.40;;;6.10;;
20627;SDS011;10473;42.734;24.258;2022-11-24T07:16:18;11.20;;;3.90;;
20627;SDS011;10473;42.734;24.258;2022-11-24T07:18:48;12.80;;;4.90;;
20627;SDS011;10473;42.734;24.258;2022-11-24T07:21:18;6.20;;;3.13;;
20627;SDS011;10473;42.734;24.258;2022-11-24T07:23:46;5.20;;;2.67;;
20627;SDS011;10473;42.734;24.258;2022-11-24T07:26:15;4.13;;;3.23;;
20627;SDS011;10473;42.734;24.258;2022-11-24T07:28:43;7.13;;;3.47;;
20627;SDS011;10473;42.734;24.258;2022-11-24T07:31:12;6.57;;;4.60;;
20627;SDS011;10473;42.734;24.258;2022-11-24T07:33:46;7.77;;;4.53;;
20627;SDS011;10473;42.734;24.258;2022-11-24T07:36:15;2.37;;;1.57;;
20627;SDS011;10473;42.734;24.258;2022-11-24T07:38:43;1.33;;;1.00;;
20627;SDS011;10473;42.734;24.258;2022-11-24T07:41:11;3.97;;;1.80;;
20627;SDS011;10473;42.734;24.258;2022-11-24T07:43:40;1.93;;;1.50;;
20627;SDS011;10473;42.734;24.258;2022-11-24T07:46:09;1.30;;;1.20;;
20627;SDS011;10473;42.734;24.258;2022-11-24T12:12:20;5.43;;;3.43;;
20627;SDS011;10473;42.734;24.258;2022-11-24T12:14:58;4.40;;;3.70;;
20627;SDS011;10473;42.734;24.258;2022-11-24T12:17:38;3.10;;;2.80;;
20627;SDS011;10473;42.734;24.258;2022-11-24T12:20:17;3.83;;;3.10;;
20627;SDS011;10473;42.734;24.258;2022-11-24T12:22:57;3.33;;;2.90;;
20627;SDS011;10473;42.734;24.258;2022-11-24T12:25:37;2.80;;;2.50;;
20627;SDS011;10473;42.734;24.258;2022-11-24T12:28:15;6.17;;;2.57;;
20627;SDS011;10473;42.734;24.258;2022-11-24T12:30:57;3.37;;;2.23;;
20627;SDS011;10473;42.734;24.258;2022-11-24T12:36:51;2.50;;;2.10;;
20627;SDS011;10473;42.734;24.258;2022-11-24T12:39:30;4.40;;;2.90;;
20627;SDS011;10473;42.734;24.258;2022-11-24T12:42:10;2.37;;;2.17;;
20627;SDS011;10473;42.734;24.258;2022-11-24T12:44:47;9.27;;;2.13;;
20627;SDS011;10473;42.734;24.258;2022-11-24T12:47:34;3.40;;;2.60;;
20627;SDS011;10473;42.734;24.258;2022-11-24T12:50:08;4.20;;;2.63;;
20627;SDS011;10473;42.734;24.258;2022-11-24T12:52:39;3.10;;;2.50;;
20627;SDS011;10473;42.734;24.258;2022-11-24T12:55:14;3.17;;;2.43;;
20627;SDS011;10473;42.734;24.258;2022-11-24T12:57:47;2.23;;;2.03;;
20627;SDS011;10473;42.734;24.258;2022-11-24T13:00:26;1.63;;;1.53;;
20627;SDS011;10473;42.734;24.258;2022-11-24T13:03:07;3.63;;;2.07;;
20627;SDS011;10473;42.734;24.258;2022-11-24T13:05:45;3.70;;;2.23;;
20627;SDS011;10473;42.734;24.258;2022-11-24T13:08:19;1.70;;;1.60;;
20627;SDS011;10473;42.734;24.258;2022-11-24T13:10:48;1.93;;;1.60;;
20627;SDS011;10473;42.734;24.258;2022-11-24T13:13:15;1.73;;;1.63;;
20627;SDS011;10473;42.734;24.258;2022-11-24T13:18:46;2.03;;;1.83;;
20627;SDS011;10473;42.734;24.258;2022-11-24T13:21:33;6.07;;;3.07;;
20627;SDS011;10473;42.734;24.258;2022-11-24T13:24:23;1.60;;;1.30;;
20627;SDS011;10473;42.734;24.258;2022-11-24T13:26:53;3.33;;;3.03;;
20627;SDS011;10473;42.734;24.258;2022-11-24T13:29:41;4.57;;;3.47;;
20627;SDS011;10473;42.734;24.258;2022-11-24T13:35:19;4.60;;;3.03;;
20627;SDS011;10473;42.734;24.258;2022-11-24T13:37:47;2.57;;;1.97;;
20627;SDS011;10473;42.734;24.258;2022-11-24T13:43:19;3.60;;;2.67;;
20627;SDS011;10473;42.734;24.258;2022-11-24T13:45:51;4.43;;;3.90;;
20627;SDS011;10473;42.734;24.258;2022-11-24T13:51:23;7.10;;;5.90;;
20627;SDS011;10473;42.734;24.258;2022-11-24T13:53:52;6.00;;;5.13;;
20627;SDS011;10473;42.734;24.258;2022-11-24T13:56:27;3.47;;;2.67;;
20627;SDS011;10473;42.734;24.258;2022-11-24T13:58:57;3.43;;;2.50;;
20627;SDS011;10473;42.734;24.258;2022-11-24T14:01:27;2.60;;;2.10;;
20627;SDS011;10473;42.734;24.258;2022-11-24T14:03:58;4.13;;;3.73;;
20627;SDS011;10473;42.734;24.258;2022-11-24T14:06:32;5.37;;;2.77;;
20627;SDS011;10473;42.734;24.258;2022-11-24T14:09:06;3.00;;;2.33;;
20627;SDS011;10473;42.734;24.258;2022-11-24T14:11:53;3.13;;;2.27;;
20627;SDS011;10473;42.734;24.258;2022-11-24T14:14:25;3.37;;;2.63;;
20627;SDS011;10473;42.734;24.258;2022-11-24T14:17:07;2.53;;;2.07;;
20627;SDS011;10473;42.734;24.258;2022-11-24T14:19:41;4.07;;;2.97;;
20627;SDS011;10473;42.734;24.258;2022-11-24T14:22:15;2.80;;;2.53;;
20627;SDS011;10473;42.734;24.258;2022-11-24T14:24:50;2.37;;;1.70;;
20627;SDS011;10473;42.734;24.258;2022-11-24T14:27:22;3.57;;;2.30;;
20627;SDS011;10473;42.734;24.258;2022-11-24T14:29:55;2.93;;;2.37;;
20627;SDS011;10473;42.734;24.258;2022-11-24T14:32:24;2.93;;;2.10;;
20627;SDS011;10473;42.734;24.258;2022-11-24T14:34:52;2.43;;;2.23;;
20627;SDS011;10473;42.734;24.258;2022-11-24T14:37:21;2.60;;;2.17;;
20627;SDS011;10473;42.734;24.258;2022-11-24T14:39:49;3.00;;;2.20;;
20627;SDS011;10473;42.734;24.258;2022-11-24T14:42:18;4.53;;;2.47;;
20627;SDS011;10473;42.734;24.258;2022-11-24T14:44:48;2.10;;;1.50;;
20627;SDS011;10473;42.734;24.258;2022-11-24T14:47:21;2.13;;;2.00;;
20627;SDS011;10473;42.734;24.258;2022-11-24T14:49:52;3.13;;;2.10;;
20627;SDS011;10473;42.734;24.258;2022-11-24T14:52:22;2.77;;;2.30;;
20627;SDS011;10473;42.734;24.258;2022-11-24T14:54:52;4.60;;;3.50;;
20627;SDS011;10473;42.734;24.258;2022-11-24T14:57:24;5.53;;;4.10;;
20627;SDS011;10473;42.734;24.258;2022-11-24T15:00:12;8.17;;;5.97;;
20627;SDS011;10473;42.734;24.258;2022-11-24T15:02:45;7.57;;;4.53;;
20627;SDS011;10473;42.734;24.258;2022-11-24T15:05:17;4.70;;;3.70;;
20627;SDS011;10473;42.734;24.258;2022-11-24T15:07:47;6.37;;;4.67;;
20627;SDS011;10473;42.734;24.258;2022-11-24T15:10:19;7.07;;;5.33;;
20627;SDS011;10473;42.734;24.258;2022-11-24T15:12:51;8.67;;;6.50;;
20627;SDS011;10473;42.734;24.258;2022-11-24T15:15:21;14.90;;;8.43;;
20627;SDS011;10473;42.734;24.258;2022-11-24T15:17:53;14.97;;;6.77;;
20627;SDS011;10473;42.734;24.258;2022-11-24T15:20:24;6.13;;;4.10;;
20627;SDS011;10473;42.734;24.258;2022-11-24T15:23:19;9.20;;;6.23;;
20627;SDS011;10473;42.734;24.258;2022-11-24T15:25:48;30.63;;;16.97;;
20627;SDS011;10473;42.734;24.258;2022-11-24T15:28:17;9.87;;;5.73;;
20627;SDS011;10473;42.734;24.258;2022-11-24T15:30:50;8.50;;;3.90;;
20627;SDS011;10473;42.734;24.258;2022-11-24T15:33:19;5.23;;;3.30;;
20627;SDS011;10473;42.734;24.258;2022-11-24T15:35:48;5.03;;;3.20;;
20627;SDS011;10473;42.734;24.258;2022-11-24T15:38:17;7.37;;;5.23;;
20627;SDS011;10473;42.734;24.258;2022-11-24T15:40:46;9.70;;;6.30;;
20627;SDS011;10473;42.734;24.258;2022-11-24T15:43:20;4.93;;;3.80;;
20627;SDS011;10473;42.734;24.258;2022-11-24T15:45:54;3.60;;;3.20;;
20627;SDS011;10473;42.734;24.258;2022-11-24T15:48:22;5.40;;;3.87;;
20627;SDS011;10473;42.734;24.258;2022-11-24T15:50:50;7.00;;;5.37;;
20627;SDS011;10473;42.734;24.258;2022-11-24T15:53:20;6.13;;;5.23;;
20627;SDS011;10473;42.734;24.258;2022-11-24T15:55:50;12.70;;;6.13;;
20627;SDS011;10473;42.734;24.258;2022-11-24T15:58:18;13.07;;;5.67;;
20627;SDS011;10473;42.734;24.258;2022-11-24T16:00:46;11.10;;;5.20;;
20627;SDS011;10473;42.734;24.258;2022-11-24T16:03:15;10.73;;;6.80;;
20627;SDS011;10473;42.734;24.258;2022-11-24T16:05:43;20.47;;;8.50;;
20627;SDS011;10473;42.734;24.258;2022-11-24T16:08:12;13.70;;;5.87;;
20627;SDS011;10473;42.734;24.258;2022-11-24T16:10:43;6.20;;;4.30;;
20627;SDS011;10473;42.734;24.258;2022-11-24T16:13:10;14.80;;;10.67;;
20627;SDS011;10473;42.734;24.258;2022-11-24T16:15:38;12.57;;;9.00;;
20627;SDS011;10473;42.734;24.258;2022-11-24T16:18:06;8.23;;;6.87;;
20627;SDS011;10473;42.734;24.258;2022-11-24T16:20:34;6.90;;;4.47;;
20627;SDS011;10473;42.734;24.258;2022-11-24T16:23:02;6.70;;;5.60;;
20627;SDS011;10473;42.734;24.258;2022-11-24T16:25:30;10.77;;;7.70;;
20627;SDS011;10473;42.734;24.258;2022-11-24T16:27:59;11.70;;;7.63;;
20627;SDS011;10473;42.734;24.258;2022-11-24T16:30:27;22.93;;;10.73;;
20627;SDS011;10473;42.734;24.258;2022-11-24T16:32:55;17.33;;;9.47;;
20627;SDS011;10473;42.734;24.258;2022-11-24T16:35:22;16.17;;;10.03;;
20627;SDS011;10473;42.734;24.258;2022-11-24T16:37:50;16.10;;;10.17;;
20627;SDS011;10473;42.734;24.258;2022-11-24T16:40:18;14.60;;;7.63;;
20627;SDS011;10473;42.734;24.258;2022-11-24T16:42:46;11.30;;;6.63;;
20627;SDS011;10473;42.734;24.258;2022-11-24T16:45:15;9.70;;;6.73;;
20627;SDS011;10473;42.734;24.258;2022-11-24T16:47:43;6.77;;;4.80;;
20627;SDS011;10473;42.734;24.258;2022-11-24T16:50:11;7.13;;;4.57;;
20627;SDS011;10473;42.734;24.258;2022-11-24T16:52:38;10.20;;;5.37;;
20627;SDS011;10473;42.734;24.258;2022-11-24T16:55:06;11.73;;;7.57;;
20627;SDS011;10473;42.734;24.258;2022-11-24T16:57:37;8.73;;;6.00;;
20627;SDS011;10473;42.734;24.258;2022-11-24T17:00:07;14.73;;;9.47;;
20627;SDS011;10473;42.734;24.258;2022-11-24T17:02:37;11.93;;;5.20;;
20627;SDS011;10473;42.734;24.258;2022-11-24T17:05:05;4.87;;;3.80;;
20627;SDS011;10473;42.734;24.258;2022-11-24T17:07:33;6.07;;;3.93;;
20627;SDS011;10473;42.734;24.258;2022-11-24T17:10:02;6.23;;;5.00;;
20627;SDS011;10473;42.734;24.258;2022-11-24T17:12:30;6.77;;;4.87;;
20627;SDS011;10473;42.734;24.258;2022-11-24T17:14:58;9.93;;;7.27;;
20627;SDS011;10473;42.734;24.258;2022-11-24T17:17:26;10.80;;;8.13;;
20627;SDS011;10473;42.734;24.258;2022-11-24T17:19:55;8.00;;;6.30;;
20627;SDS011;10473;42.734;24.258;2022-11-24T17:22:23;7.97;;;5.93;;
20627;SDS011;10473;42.734;24.258;2022-11-24T17:24:50;5.70;;;5.13;;
20627;SDS011;10473;42.734;24.258;2022-11-24T17:27:18;12.70;;;8.47;;
20627;SDS011;10473;42.734;24.258;2022-11-24T17:29:46;12.40;;;8.20;;
20627;SDS011;10473;42.734;24.258;2022-11-24T17:32:14;12.03;;;8.30;;
20627;SDS011;10473;42.734;24.258;2022-11-24T17:34:42;12.57;;;5.50;;
20627;SDS011;10473;42.734;24.258;2022-11-24T17:37:11;8.63;;;5.53;;
20627;SDS011;10473;42.734;24.258;2022-11-24T17:39:39;8.77;;;5.67;;
20627;SDS011;10473;42.734;24.258;2022-11-24T17:42:07;7.90;;;5.17;;
20627;SDS011;10473;42.734;24.258;2022-11-24T17:44:35;3.87;;;3.47;;
20627;SDS011;10473;42.734;24.258;2022-11-24T17:47:02;8.17;;;4.00;;
20627;SDS011;10473;42.734;24.258;2022-11-24T17:49:30;4.00;;;2.97;;
20627;SDS011;10473;42.734;24.258;2022-11-24T17:51:58;4.43;;;2.83;;
20627;SDS011;10473;42.734;24.258;2022-11-24T17:54:27;6.20;;;3.03;;
20627;SDS011;10473;42.734;24.258;2022-11-24T17:56:55;10.53;;;7.20;;
20627;SDS011;10473;42.734;24.258;2022-11-24T17:59:23;6.63;;;5.10;;
20627;SDS011;10473;42.734;24.258;2022-11-24T18:01:50;5.17;;;3.73;;
20627;SDS011;10473;42.734;24.258;2022-11-24T18:04:18;3.50;;;2.63;;
20627;SDS011;10473;42.734;24.258;2022-11-24T18:06:46;3.40;;;2.87;;
20627;SDS011;10473;42.734;24.258;2022-11-24T18:09:14;8.90;;;3.90;;
20627;SDS011;10473;42.734;24.258;2022-11-24T18:11:43;5.13;;;4.13;;
20627;SDS011;10473;42.734;24.258;2022-11-24T18:14:12;6.43;;;4.90;;
20627;SDS011;10473;42.734;24.258;2022-11-24T18:16:40;6.30;;;5.03;;
20627;SDS011;10473;42.734;24.258;2022-11-24T18:19:08;5.67;;;3.50;;
20627;SDS011;10473;42.734;24.258;2022-11-24T18:21:36;5.70;;;3.63;;
20627;SDS011;10473;42.734;24.258;2022-11-24T18:24:04;3.23;;;2.93;;
20627;SDS011;10473;42.734;24.258;2022-11-24T18:26:32;5.53;;;5.03;;
20627;SDS011;10473;42.734;24.258;2022-11-24T18:29:01;3.80;;;3.17;;
20627;SDS011;10473;42.734;24.258;2022-11-24T18:31:29;6.90;;;3.80;;
20627;SDS011;10473;42.734;24.258;2022-11-24T18:33:59;5.63;;;4.70;;
20627;SDS011;10473;42.734;24.258;2022-11-24T18:36:27;6.17;;;4.60;;
20627;SDS011;10473;42.734;24.258;2022-11-24T18:38:55;7.07;;;4.77;;
20627;SDS011;10473;42.734;24.258;2022-11-24T18:41:22;8.63;;;4.30;;
20627;SDS011;10473;42.734;24.258;2022-11-24T18:43:50;5.43;;;4.17;;
20627;SDS011;10473;42.734;24.258;2022-11-24T18:46:19;4.13;;;3.47;;
20627;SDS011;10473;42.734;24.258;2022-11-24T18:48:47;5.10;;;4.30;;
20627;SDS011;10473;42.734;24.258;2022-11-24T18:51:16;4.07;;;3.67;;
20627;SDS011;10473;42.734;24.258;2022-11-24T18:53:45;4.07;;;3.10;;
20627;SDS011;10473;42.734;24.258;2022-11-24T18:56:13;3.10;;;2.87;;
20627;SDS011;10473;42.734;24.258;2022-11-24T18:58:42;30.43;;;17.83;;
20627;SDS011;10473;42.734;24.258;2022-11-24T19:01:12;15.43;;;9.13;;
20627;SDS011;10473;42.734;24.258;2022-11-24T19:03:44;12.00;;;6.47;;
20627;SDS011;10473;42.734;24.258;2022-11-24T19:06:13;5.50;;;4.80;;
20627;SDS011;10473;42.734;24.258;2022-11-24T19:08:42;8.87;;;5.13;;
20627;SDS011;10473;42.734;24.258;2022-11-24T19:11:14;6.00;;;4.27;;
20627;SDS011;10473;42.734;24.258;2022-11-24T19:13:44;4.70;;;3.80;;
20627;SDS011;10473;42.734;24.258;2022-11-24T19:16:13;3.57;;;3.27;;
20627;SDS011;10473;42.734;24.258;2022-11-24T19:18:43;5.87;;;3.87;;
20627;SDS011;10473;42.734;24.258;2022-11-24T19:21:11;3.50;;;3.20;;
20627;SDS011;10473;42.734;24.258;2022-11-24T19:23:39;3.90;;;3.20;;
20627;SDS011;10473;42.734;24.258;2022-11-24T19:26:07;6.27;;;3.70;;
20627;SDS011;10473;42.734;24.258;2022-11-24T19:28:35;5.83;;;3.70;;